createdAt,value
2019-04-11T00:02:14.331Z,5.52
2019-04-11T00:07:22.396Z,5.35
2019-04-11T00:12:30.520Z,5.18
2019-04-11T00:17:38.351Z,4.86
2019-04-11T00:22:44.398Z,4.86
2019-04-11T00:27:51.443Z,4.76
2019-04-11T00:32:58.475Z,4.67
2019-04-11T00:38:05.605Z,4.59
2019-04-11T00:43:12.452Z,4.40
2019-04-11T00:48:19.704Z,4.40
2019-04-11T00:53:27.720Z,4.42
2019-04-11T00:58:36.006Z,4.37
2019-04-11T01:03:43.452Z,4.24
2019-04-11T01:08:51.546Z,4.24
2019-04-11T01:13:59.483Z,4.15
2019-04-11T01:19:06.678Z,4.13
2019-04-11T01:24:13.692Z,4.13
2019-04-11T01:29:20.697Z,4.07
2019-04-11T01:34:28.664Z,4.04
2019-04-11T01:43:11.903Z,3.96
2019-04-11T01:48:43.938Z,4.89
2019-04-11T01:53:51.123Z,4.36
2019-04-11T01:58:59.381Z,4.23
2019-04-11T02:04:16.048Z,4.23
2019-04-11T02:09:24.164Z,4.18
2019-04-11T02:14:31.460Z,4.15
2019-04-11T02:19:38.532Z,4.12
2019-04-11T02:24:59.037Z,4.07
2019-04-11T02:30:08.794Z,4.07
2019-04-11T02:35:17.704Z,3.98
2019-04-11T02:40:27.524Z,3.98
2019-04-11T02:45:46.748Z,3.90
2019-04-11T02:50:45.727Z,3.80
2019-04-11T02:55:54.155Z,3.60
2019-04-11T03:01:05.004Z,3.60
2019-04-11T03:06:11.172Z,3.47
2019-04-11T03:11:19.174Z,3.35
2019-04-11T03:16:39.415Z,3.28
2019-04-11T03:21:41.312Z,3.08
2019-04-11T03:26:46.301Z,2.98
2019-04-11T03:42:29.668Z,2.72
2019-04-11T03:47:34.820Z,2.72
2019-04-11T03:52:28.510Z,2.65
2019-04-11T03:57:37.313Z,2.57
2019-04-11T04:02:46.583Z,2.46
2019-04-11T04:07:55.195Z,2.36
2019-04-11T04:13:05.518Z,2.23
2019-04-11T04:18:40.360Z,2.23
2019-04-11T04:23:51.689Z,2.14
2019-04-11T04:28:59.864Z,2.09
2019-04-11T04:34:09.103Z,2.05
2019-04-11T04:39:17.427Z,2.05
2019-04-11T04:44:26.320Z,1.93
2019-04-11T04:49:34.512Z,1.93
2019-04-11T04:54:44.343Z,2.00
2019-04-11T04:59:53.146Z,2.01
2019-04-11T05:05:03.783Z,2.01
2019-04-11T05:10:11.266Z,2.05
2019-04-11T05:15:18.715Z,2.07
2019-04-11T05:20:25.567Z,2.13
2019-04-11T05:25:32.743Z,2.26
2019-04-11T05:30:39.843Z,2.26
2019-04-11T05:35:48.023Z,2.32
2019-04-11T05:40:56.568Z,2.40
2019-04-11T05:46:15.855Z,2.47
2019-04-11T05:51:13.060Z,2.54
2019-04-11T05:56:23.637Z,2.64
2019-04-11T06:01:38.338Z,2.80
2019-04-11T06:06:58.349Z,2.80
2019-04-11T06:12:22.255Z,3.14
2019-04-11T06:17:30.146Z,3.14
2019-04-11T06:22:42.169Z,3.19
2019-04-11T06:27:55.824Z,3.33
2019-04-11T06:33:22.719Z,3.49
2019-04-11T06:39:00.060Z,3.66
2019-04-11T06:44:25.748Z,3.82
2019-04-11T06:49:38.453Z,3.93
2019-04-11T06:55:14.838Z,4.38
2019-04-11T07:00:23.089Z,4.38
2019-04-11T07:05:33.183Z,4.66
2019-04-11T07:10:48.905Z,4.95
2019-04-11T07:15:57.411Z,5.15
2019-04-11T07:21:08.490Z,5.27
2019-04-11T07:26:21.319Z,5.40
2019-04-11T07:31:58.658Z,5.60
2019-04-11T07:37:23.616Z,5.69
2019-04-11T07:42:49.598Z,5.89
2019-04-11T07:48:11.324Z,6.07
2019-04-11T07:53:18.252Z,6.14
2019-04-11T07:58:40.595Z,6.42
2019-04-11T08:03:58.634Z,6.67
2019-04-11T08:09:26.771Z,7.00
2019-04-11T08:15:10.699Z,7.00
2019-04-11T08:20:42.285Z,7.13
2019-04-11T08:26:14.262Z,7.50
2019-04-11T08:31:40.258Z,7.97
2019-04-11T08:37:05.521Z,8.24
2019-04-11T08:42:31.701Z,8.47
2019-04-11T08:47:49.268Z,8.33
2019-04-11T08:53:11.256Z,8.12
2019-04-11T08:58:40.589Z,8.17
2019-04-11T09:04:12.100Z,8.12
2019-04-11T09:09:29.396Z,8.25
2019-04-11T09:14:57.242Z,8.60
2019-04-11T09:20:33.832Z,8.62
2019-04-11T09:25:59.519Z,8.32
2019-04-11T09:31:29.626Z,8.21
2019-04-11T09:36:45.169Z,8.28
2019-04-11T09:42:11.595Z,9.03
2019-04-11T09:47:40.592Z,8.85
2019-04-11T09:52:47.478Z,8.85
2019-04-11T09:57:59.684Z,8.42
2019-04-11T10:03:15.409Z,8.71
2019-04-11T10:08:39.718Z,9.06
2019-04-11T10:14:10.592Z,8.97
2019-04-11T10:19:24.445Z,8.92
2019-04-11T10:24:39.400Z,9.01
2019-04-11T10:30:08.629Z,9.01
2019-04-11T10:35:38.596Z,9.01
2019-04-11T10:41:08.254Z,8.86
2019-04-11T10:46:42.261Z,8.95
2019-04-11T10:52:09.884Z,9.39
2019-04-11T10:57:34.242Z,9.30
2019-04-11T11:03:04.491Z,9.32
2019-04-11T11:08:31.217Z,9.41
2019-04-11T11:13:50.030Z,9.50
2019-04-11T11:19:37.206Z,9.45
2019-04-11T11:24:46.309Z,9.37
2019-04-11T11:30:12.744Z,8.91
2019-04-11T11:35:32.155Z,8.91
2019-04-11T11:41:03.906Z,8.82
2019-04-11T11:46:40.194Z,8.73
2019-04-11T11:52:04.733Z,8.84
2019-04-11T11:57:23.571Z,9.04
2019-04-11T12:02:45.054Z,8.68
2019-04-11T12:08:04.192Z,8.68
2019-04-11T12:13:43.707Z,8.59
2019-04-11T12:19:22.226Z,8.22
2019-04-11T12:24:43.367Z,8.02
2019-04-11T12:30:05.369Z,7.89
2019-04-11T12:35:18.420Z,7.89
2019-04-11T12:40:43.382Z,7.72
2019-04-11T12:46:29.710Z,7.72
2019-04-11T12:51:51.275Z,7.96
2019-04-11T12:57:20.254Z,8.17
2019-04-11T13:02:46.279Z,8.46
2019-04-11T13:08:17.258Z,8.51
2019-04-11T13:13:39.068Z,8.38
2019-04-11T13:19:04.738Z,8.50
2019-04-11T13:24:28.570Z,8.25
2019-04-11T13:30:03.615Z,8.15
2019-04-11T13:35:30.352Z,7.79
2019-04-11T13:40:59.693Z,7.79
2019-04-11T13:46:24.243Z,7.69
2019-04-11T13:51:42.111Z,7.85
2019-04-11T13:56:59.571Z,8.08
2019-04-11T14:02:14.582Z,8.37
2019-04-11T14:07:23.644Z,8.37
2019-04-11T14:12:29.309Z,8.05
2019-04-11T14:18:04.916Z,7.89
2019-04-11T14:23:30.264Z,7.83
2019-04-11T14:28:41.250Z,7.86
2019-04-11T14:33:55.631Z,8.22
2019-04-11T14:39:02.575Z,8.32
2019-04-11T14:44:11.456Z,8.18
2019-04-11T14:49:19.570Z,8.04
2019-04-11T14:54:49.811Z,7.80
2019-04-11T15:00:04.712Z,7.80
2019-04-11T15:05:20.536Z,7.77
2019-04-11T15:10:48.286Z,7.79
2019-04-11T15:16:11.107Z,7.84
2019-04-11T15:21:36.997Z,7.75
2019-04-11T15:27:01.512Z,7.54
2019-04-11T15:32:42.437Z,7.43
2019-04-11T15:38:08.977Z,7.47
2019-04-11T15:43:43.226Z,7.41
2019-04-11T15:49:19.653Z,7.31
2019-04-11T15:54:42.069Z,7.23
2019-04-11T16:00:07.739Z,7.21
2019-04-11T16:05:49.248Z,7.09
2019-04-11T16:11:06.332Z,7.12
2019-04-11T16:16:13.440Z,7.14
2019-04-11T16:21:24.965Z,6.99
2019-04-11T16:26:41.424Z,6.74
2019-04-11T16:31:48.555Z,6.67
2019-04-11T16:36:58.250Z,6.61
2019-04-11T16:42:06.839Z,6.57
2019-04-11T16:47:31.249Z,6.63
2019-04-11T16:52:38.580Z,6.53
2019-04-11T16:57:46.405Z,6.38
2019-04-11T17:02:54.954Z,6.43
2019-04-11T17:08:25.762Z,6.42
2019-04-11T17:13:32.774Z,6.42
2019-04-11T17:18:39.840Z,6.40
2019-04-11T17:23:47.707Z,6.36
2019-04-11T17:28:55.075Z,6.37
2019-04-11T17:34:02.789Z,6.37
2019-04-11T17:39:11.298Z,6.39
2019-04-11T17:44:20.252Z,6.42
2019-04-11T17:49:27.591Z,6.43
2019-04-11T17:54:36.028Z,6.46
2019-04-11T17:59:43.432Z,6.46
2019-04-11T18:04:50.488Z,6.40
2019-04-11T18:09:59.674Z,6.30
2019-04-11T18:15:07.517Z,5.97
2019-04-11T18:20:14.482Z,5.97
2019-04-11T18:25:21.574Z,5.89
2019-04-11T18:30:28.569Z,5.82
2019-04-11T18:35:35.581Z,5.80
2019-04-11T18:40:41.486Z,5.78
2019-04-11T18:45:48.546Z,5.81
2019-04-11T18:50:55.448Z,5.74
2019-04-11T18:56:01.716Z,5.69
2019-04-11T19:01:09.719Z,5.68
2019-04-11T19:06:27.239Z,5.68
2019-04-11T19:11:24.535Z,5.62
2019-04-11T19:16:34.400Z,5.51
2019-04-11T19:21:41.430Z,5.51
2019-04-11T19:26:48.755Z,5.53
2019-04-11T19:31:55.976Z,5.53
2019-04-11T19:37:03.761Z,5.54
2019-04-11T19:42:10.651Z,5.53
2019-04-11T19:47:21.391Z,5.46
2019-04-11T19:52:25.281Z,5.46
2019-04-11T19:57:32.452Z,5.42
2019-04-11T20:02:39.446Z,5.44
2019-04-11T20:07:46.560Z,5.43
2019-04-11T20:12:53.470Z,5.42
2019-04-11T20:18:00.652Z,5.35
2019-04-11T20:23:11.018Z,5.30
2019-04-11T20:28:19.953Z,5.30
2019-04-11T20:33:27.701Z,5.32
2019-04-11T20:38:34.990Z,5.36
2019-04-11T20:43:43.458Z,5.40
2019-04-11T20:48:51.229Z,5.42
2019-04-11T20:53:58.442Z,5.42
2019-04-11T20:59:07.960Z,5.29
2019-04-11T21:04:14.493Z,5.27
2019-04-11T21:09:22.409Z,5.19
2019-04-11T21:14:29.457Z,5.19
2019-04-11T21:19:36.463Z,5.17
2019-04-11T21:24:43.452Z,5.14
2019-04-11T21:29:50.428Z,5.14
2019-04-11T21:34:57.447Z,5.18
2019-04-11T21:40:07.473Z,5.24
2019-04-11T21:45:15.462Z,5.20
2019-04-11T21:50:22.484Z,5.16
2019-04-11T21:55:29.457Z,5.13
2019-04-11T22:00:43.046Z,5.08
2019-04-11T22:05:51.596Z,5.04
2019-04-11T22:10:58.479Z,5.04
2019-04-11T22:16:05.457Z,5.06
2019-04-11T22:21:12.949Z,5.07
2019-04-11T22:26:20.643Z,5.07
2019-04-11T22:31:26.433Z,5.02
2019-04-11T22:36:32.316Z,5.02
2019-04-11T22:41:42.991Z,4.96
2019-04-11T22:47:55.696Z,4.96
2019-04-11T22:53:04.551Z,4.99
2019-04-11T22:58:13.938Z,4.99
2019-04-11T23:03:26.513Z,5.01
2019-04-11T23:08:33.578Z,5.04
2019-04-11T23:13:40.488Z,4.84
2019-04-11T23:18:47.459Z,4.84
2019-04-11T23:23:54.446Z,4.78
2019-04-11T23:29:02.490Z,4.82
2019-04-11T23:34:08.308Z,4.87
2019-04-11T23:39:15.408Z,4.89
2019-04-11T23:44:22.479Z,4.89
2019-04-11T23:49:29.583Z,4.88
2019-04-11T23:54:36.455Z,4.94
2019-04-11T23:59:43.473Z,4.94
